Terminal Aerodrome Forecast
Issued by NWS

Home | Current Version | Previous Version | Text Only | Print | Product List | Glossary Off
Versions: 1 2 3 4 5 6 7 8 9 10 11 12 13 14 15

539
FTUS43 KGRB 031136
TAFMTW
TAF
KMTW 031136Z 0312/0412 29006KT P6SM BKN030
     FM032100 23003KT P6SM BKN035=

USA.gov is the U.S. government's official web portal to all federal, state and local government web resources and services.